Time;durP1;ratioP1;P1;durP2;ratioP2;P2;SDS_P1;SDS_P2;PMS_P1;PMS_P2;Temp;Humidity;BMP_temperature;BMP_pressure;BME280_temperature;BME280_humidity;BME280_pressure;Samples;Min_cycle;Max_cycle;Signal;HPM_P1;HPM_P2
2021/05/18 00:00:28;;;;;;;3.47;1.83;;;;;;;;;;5073700;28;20029;-68
2021/05/18 00:02:54;;;;;;;2.05;1.92;;;;;;;;;;5073632;28;20545;-68
2021/05/18 00:05:20;;;;;;;11.02;5.45;;;;;;;;;;5072199;28;20032;-68
2021/05/18 00:07:57;;;;;;;10.70;5.28;;;;;;;;;;5073576;28;20016;-68
2021/05/18 00:13:09;;;;;;;10.02;5.07;;;;;;;;;;5073622;28;20031;-68
2021/05/18 00:15:35;;;;;;;16.08;8.10;;;;;;;;;;5073026;28;20025;-68
2021/05/18 00:18:01;;;;;;;18.40;10.15;;;;;;;;;;5056007;28;20064;-68
2021/05/18 00:20:27;;;;;;;17.80;9.32;;;;;;;;;;5052751;28;20025;-68
2021/05/18 00:22:53;;;;;;;14.73;7.63;;;;;;;;;;5062883;28;20082;-68
2021/05/18 00:25:19;;;;;;;24.05;12.77;;;;;;;;;;5093433;28;20024;-68
2021/05/18 00:27:45;;;;;;;31.13;18.48;;;;;;;;;;5093573;28;20030;-68
2021/05/18 00:30:12;;;;;;;30.60;19.02;;;;;;;;;;5092681;28;20016;-68
2021/05/18 00:32:41;;;;;;;12.88;6.85;;;;;;;;;;5093147;28;20039;-68
2021/05/18 00:35:08;;;;;;;20.55;12.55;;;;;;;;;;5086853;28;20092;-68
2021/05/18 00:37:34;;;;;;;17.90;9.45;;;;;;;;;;5072633;28;20032;-68
2021/05/18 00:40:00;;;;;;;11.15;5.47;;;;;;;;;;5073187;28;20479;-67
2021/05/18 00:42:26;;;;;;;14.80;7.13;;;;;;;;;;5073304;28;20389;-68
2021/05/18 00:44:53;;;;;;;14.20;7.70;;;;;;;;;;5072405;28;20072;-68
2021/05/18 00:47:19;;;;;;;10.35;5.22;;;;;;;;;;5072019;28;20382;-68
2021/05/18 00:49:45;;;;;;;7.00;4.22;;;;;;;;;;5073248;28;20031;-68
2021/05/18 00:52:11;;;;;;;4.95;3.10;;;;;;;;;;5072493;28;20060;-68
2021/05/18 00:54:46;;;;;;;4.60;3.00;;;;;;;;;;5072768;28;20028;-68
2021/05/18 00:59:58;;;;;;;7.97;4.05;;;;;;;;;;5072680;28;20031;-67
2021/05/18 01:02:24;;;;;;;7.63;3.95;;;;;;;;;;5072658;28;20093;-68
2021/05/18 01:04:56;;;;;;;7.60;4.07;;;;;;;;;;5072420;28;20067;-68
2021/05/18 01:07:22;;;;;;;5.43;3.60;;;;;;;;;;5072226;28;20099;-68
2021/05/18 01:09:48;;;;;;;6.72;4.10;;;;;;;;;;5072639;28;20021;-68
2021/05/18 01:12:14;;;;;;;7.13;4.68;;;;;;;;;;5072738;28;20031;-68
2021/05/18 01:14:40;;;;;;;5.28;4.00;;;;;;;;;;5048860;28;20033;-68
2021/05/18 01:17:07;;;;;;;14.52;3.40;;;;;;;;;;5052675;28;20040;-68
2021/05/18 01:19:33;;;;;;;17.63;9.10;;;;;;;;;;5052360;28;20033;-68
2021/05/18 01:22:01;;;;;;;14.15;8.07;;;;;;;;;;5052056;28;20096;-68
2021/05/18 01:24:27;;;;;;;35.35;22.17;;;;;;;;;;5089226;28;20441;-68
2021/05/18 01:26:53;;;;;;;21.10;12.02;;;;;;;;;;5091434;28;20020;-68
2021/05/18 01:29:22;;;;;;;15.70;7.75;;;;;;;;;;5091632;28;20107;-69
2021/05/18 01:31:48;;;;;;;5.57;3.60;;;;;;;;;;5092931;28;20351;-68
2021/05/18 01:34:14;;;;;;;2.67;2.40;;;;;;;;;;5092223;28;20020;-68
2021/05/18 01:36:40;;;;;;;3.00;2.40;;;;;;;;;;5092016;28;20099;-68
2021/05/18 01:44:28;;;;;;;7.35;4.30;;;;;;;;;;5080480;28;20111;-68
2021/05/18 01:46:54;;;;;;;3.75;3.00;;;;;;;;;;5072265;28;20024;-68
2021/05/18 01:49:20;;;;;;;4.63;3.78;;;;;;;;;;5071777;28;20099;-68
2021/05/18 01:51:47;;;;;;;2.97;2.63;;;;;;;;;;5071503;28;20047;-68
2021/05/18 01:54:15;;;;;;;6.72;4.00;;;;;;;;;;5070595;28;20055;-68
2021/05/18 01:59:08;;;;;;;3.55;2.90;;;;;;;;;;5071741;28;20413;-68
2021/05/18 02:01:34;;;;;;;3.53;2.60;;;;;;;;;;5070705;28;20086;-68
2021/05/18 02:04:00;;;;;;;2.85;2.60;;;;;;;;;;5071684;28;20021;-67
2021/05/18 02:06:26;;;;;;;4.38;2.75;;;;;;;;;;5070069;28;20038;-68
2021/05/18 02:08:53;;;;;;;5.15;2.55;;;;;;;;;;5072127;28;20024;-67
2021/05/18 02:11:19;;;;;;;2.33;2.13;;;;;;;;;;5071331;28;20024;-68
2021/05/18 02:13:48;;;;;;;3.78;2.20;;;;;;;;;;5071091;28;20471;-68
2021/05/18 02:16:29;;;;;;;2.67;1.88;;;;;;;;;;5071695;28;20017;-68
2021/05/18 02:26:58;;;;;;;3.05;2.67;;;;;;;;;;5071163;28;20382;-68
2021/05/18 02:29:24;;;;;;;2.38;2.17;;;;;;;;;;5071342;28;20078;-68
2021/05/18 02:31:54;;;;;;;2.95;1.90;;;;;;;;;;5071066;28;20059;-68
2021/05/18 02:34:20;;;;;;;1.85;1.70;;;;;;;;;;5070605;28;20119;-68
2021/05/18 02:36:46;;;;;;;2.08;1.88;;;;;;;;;;5050530;28;20033;-68
2021/05/18 02:39:12;;;;;;;1.90;1.80;;;;;;;;;;5050531;28;20055;-68
2021/05/18 02:41:38;;;;;;;3.30;1.92;;;;;;;;;;5050092;28;20108;-67
2021/05/18 02:45:09;;;;;;;1.80;1.70;;;;;;;;;;5057724;28;20021;-68
2021/05/18 02:49:44;;;;;;;2.75;1.55;;;;;;;;;;5070322;28;20028;-68
2021/05/18 02:52:10;;;;;;;1.92;1.73;;;;;;;;;;5070634;28;20043;-68
2021/05/18 02:54:36;;;;;;;2.42;2.22;;;;;;;;;;5059170;28;20398;-67
2021/05/18 02:57:05;;;;;;;2.88;2.60;;;;;;;;;;5073825;28;20028;-68
2021/05/18 02:59:31;;;;;;;7.43;3.13;;;;;;;;;;5075055;28;20436;-68
2021/05/18 03:01:58;;;;;;;6.88;3.75;;;;;;;;;;5073784;28;20071;-68
2021/05/18 03:04:24;;;;;;;7.13;3.60;;;;;;;;;;5056569;28;20895;-68
2021/05/18 03:06:50;;;;;;;13.32;5.88;;;;;;;;;;5074823;28;20033;-68
2021/05/18 03:09:17;;;;;;;12.07;6.20;;;;;;;;;;5075034;28;20024;-68
2021/05/18 03:11:43;;;;;;;9.82;4.60;;;;;;;;;;5073496;28;20032;-68
2021/05/18 03:14:10;;;;;;;8.38;4.30;;;;;;;;;;5063833;28;20067;-68
2021/05/18 03:16:36;;;;;;;5.80;3.50;;;;;;;;;;5055004;28;20021;-68
2021/05/18 03:19:03;;;;;;;6.80;3.95;;;;;;;;;;5053998;28;20021;-68
2021/05/18 03:21:29;;;;;;;4.25;2.90;;;;;;;;;;5070205;28;20021;-68
2021/05/18 03:23:55;;;;;;;4.72;3.10;;;;;;;;;;5083670;28;20038;-68
2021/05/18 03:26:21;;;;;;;5.95;3.25;;;;;;;;;;5093375;28;20032;-68
2021/05/18 03:28:54;;;;;;;3.50;2.95;;;;;;;;;;5095061;28;20529;-68
2021/05/18 03:36:49;;;;;;;3.80;2.80;;;;;;;;;;5094927;28;20059;-68
2021/05/18 03:39:16;;;;;;;3.67;2.80;;;;;;;;;;5094832;28;20024;-68
2021/05/18 03:41:52;;;;;;;4.50;2.70;;;;;;;;;;5094346;28;20033;-68
2021/05/18 03:44:33;;;;;;;2.95;2.70;;;;;;;;;;5085109;28;20095;-68
2021/05/18 03:52:29;;;;;;;3.78;2.50;;;;;;;;;;5074296;28;20047;-68
2021/05/18 04:03:12;;;;;;;2.40;2.25;;;;;;;;;;5073070;28;20066;-68
2021/05/18 04:19:03;;;;;;;3.88;3.35;;;;;;;;;;5072498;28;20058;-68
2021/05/18 04:21:44;;;;;;;3.50;3.20;;;;;;;;;;5072841;28;20025;-68
2021/05/18 04:54:09;;;;;;;2.20;2.10;;;;;;;;;;5073179;28;20039;-68
2021/05/18 04:59:45;;;;;;;4.13;3.45;;;;;;;;;;5066709;28;20063;-68
2021/05/18 05:06:57;;;;;;;2.80;2.60;;;;;;;;;;5071095;28;20076;-68
2021/05/18 05:09:26;;;;;;;3.00;2.45;;;;;;;;;;5070772;28;20475;-68
2021/05/18 05:14:37;;;;;;;4.50;3.47;;;;;;;;;;5063187;28;20505;-68
2021/05/18 05:17:03;;;;;;;3.60;2.78;;;;;;;;;;5068641;28;20086;-68
2021/05/18 05:19:30;;;;;;;3.80;2.78;;;;;;;;;;5070556;28;20033;-68
2021/05/18 05:21:56;;;;;;;5.22;3.15;;;;;;;;;;5070856;28;20060;-68
2021/05/18 05:24:22;;;;;;;8.25;3.88;;;;;;;;;;5069869;28;20475;-68
2021/05/18 05:26:49;;;;;;;6.72;3.80;;;;;;;;;;5071354;28;20028;-68
2021/05/18 05:29:15;;;;;;;3.75;3.40;;;;;;;;;;5069891;28;20052;-68
2021/05/18 05:31:42;;;;;;;4.07;3.33;;;;;;;;;;5067048;28;20039;-67
2021/05/18 05:34:08;;;;;;;4.20;3.30;;;;;;;;;;5069904;28;20111;-68
2021/05/18 05:36:34;;;;;;;6.03;3.53;;;;;;;;;;5071294;28;20024;-67
2021/05/18 05:39:04;;;;;;;3.28;2.97;;;;;;;;;;5068702;28;20051;-67
2021/05/18 05:41:30;;;;;;;3.22;2.88;;;;;;;;;;5070055;28;20052;-68
2021/05/18 05:43:56;;;;;;;4.47;2.83;;;;;;;;;;5069589;28;20031;-68
2021/05/18 05:46:22;;;;;;;3.70;2.55;;;;;;;;;;5058630;28;20037;-68
2021/05/18 05:48:52;;;;;;;4.40;3.17;;;;;;;;;;5052049;28;20036;-69
2021/05/18 05:51:19;;;;;;;4.68;3.50;;;;;;;;;;5058678;28;20433;-68
2021/05/18 05:53:45;;;;;;;4.20;3.58;;;;;;;;;;5069528;28;20052;-68
2021/05/18 05:56:11;;;;;;;4.95;3.00;;;;;;;;;;5070248;28;20028;-68
2021/05/18 05:58:37;;;;;;;4.95;3.20;;;;;;;;;;5056489;28;20032;-67
2021/05/18 06:01:03;;;;;;;4.85;3.28;;;;;;;;;;5065751;28;20047;-67
2021/05/18 06:03:30;;;;;;;3.60;3.30;;;;;;;;;;5056162;28;20041;-67
2021/05/18 06:05:57;;;;;;;4.53;3.23;;;;;;;;;;5066887;28;20039;-68
2021/05/18 06:08:23;;;;;;;3.60;3.30;;;;;;;;;;5065935;28;20029;-67
2021/05/18 06:10:53;;;;;;;5.32;4.25;;;;;;;;;;5066917;28;20451;-68
2021/05/18 06:13:44;;;;;;;7.63;4.72;;;;;;;;;;5063633;28;20020;-68
2021/05/18 06:41:11;;;;;;;4.40;4.00;;;;;;;;;;5064379;28;20040;-68
2021/05/18 06:43:37;;;;;;;6.40;4.15;;;;;;;;;;5065219;28;20187;-73
2021/05/18 06:48:55;;;;;;;8.80;4.85;;;;;;;;;;5072355;28;20897;-68
2021/05/18 06:51:21;;;;;;;6.53;4.10;;;;;;;;;;5062148;28;20039;-68
2021/05/18 06:53:47;;;;;;;8.70;4.78;;;;;;;;;;5064838;28;20059;-68
2021/05/18 06:56:14;;;;;;;6.13;4.00;;;;;;;;;;5064413;28;20089;-67
2021/05/18 07:01:07;;;;;;;4.05;3.60;;;;;;;;;;5065268;28;20036;-69
2021/05/18 07:03:38;;;;;;;5.70;4.90;;;;;;;;;;5064003;28;20090;-67
2021/05/18 07:08:55;;;;;;;4.65;3.60;;;;;;;;;;5064097;28;20039;-67
2021/05/18 07:11:17;;;;;;;8.52;4.78;;;;;;;;;;5059684;28;20029;-69
2021/05/18 07:13:43;;;;;;;6.18;3.95;;;;;;;;;;5062834;28;20112;-68
2021/05/18 07:16:09;;;;;;;7.78;5.50;;;;;;;;;;5063270;28;20090;-74
2021/05/18 07:18:36;;;;;;;8.80;4.95;;;;;;;;;;5039621;28;20056;-74
2021/05/18 07:21:02;;;;;;;9.50;4.72;;;;;;;;;;5065439;28;20036;-68
2021/05/18 07:23:28;;;;;;;9.18;5.07;;;;;;;;;;5068359;28;20020;-68
2021/05/18 07:25:54;;;;;;;8.55;5.80;;;;;;;;;;5062880;28;20067;-68
2021/05/18 07:28:21;;;;;;;7.95;6.20;;;;;;;;;;5064983;28;20039;-68
2021/05/18 07:30:47;;;;;;;7.90;5.60;;;;;;;;;;5066785;28;20031;-67
2021/05/18 07:33:14;;;;;;;7.60;5.40;;;;;;;;;;5053482;28;20021;-67
2021/05/18 07:35:42;;;;;;;7.85;5.70;;;;;;;;;;5064630;28;20459;-67
2021/05/18 07:38:08;;;;;;;7.32;6.15;;;;;;;;;;5062113;28;20032;-67
2021/05/18 07:40:34;;;;;;;9.60;6.55;;;;;;;;;;5063287;28;20039;-67
2021/05/18 07:43:00;;;;;;;9.82;6.72;;;;;;;;;;5068281;28;20024;-68
2021/05/18 07:45:27;;;;;;;10.57;7.20;;;;;;;;;;5068053;28;20029;-67
2021/05/18 07:47:59;;;;;;;8.98;6.90;;;;;;;;;;5068807;28;20039;-67
2021/05/18 07:50:41;;;;;;;11.10;7.70;;;;;;;;;;5067478;28;20070;-67
2021/05/18 08:06:52;;;;;;;12.25;7.97;;;;;;;;;;5068452;28;20116;-67
2021/05/18 08:09:20;;;;;;;12.93;8.68;;;;;;;;;;5067314;28;20031;-67
2021/05/18 08:11:46;;;;;;;12.10;8.27;;;;;;;;;;5069330;28;20063;-67
2021/05/18 08:14:12;;;;;;;10.43;8.35;;;;;;;;;;5069584;28;20060;-67
2021/05/18 10:21:39;;;;;;;12.52;7.40;;;;;;;;;;5065293;28;20024;-68
2021/05/18 10:34:28;;;;;;;6.20;5.00;;;;;;;;;;5062007;28;20028;-75
2021/05/18 10:36:55;;;;;;;12.05;5.90;;;;;;;;;;5077069;28;20359;-74
2021/05/18 10:39:22;;;;;;;8.52;5.63;;;;;;;;;;5055720;28;20221;-73
2021/05/18 10:41:49;;;;;;;16.13;10.00;;;;;;;;;;5063499;28;20020;-75
2021/05/18 10:44:15;;;;;;;13.77;7.70;;;;;;;;;;5059862;28;20027;-67
2021/05/18 10:46:51;;;;;;;11.23;6.88;;;;;;;;;;5061590;28;20107;-68
2021/05/18 10:49:40;;;;;;;5.85;4.90;;;;;;;;;;5063777;28;20112;-68
2021/05/18 10:52:09;;;;;;;9.07;5.68;;;;;;;;;;5065208;28;20073;-68
2021/05/18 10:54:42;;;;;;;10.40;5.00;;;;;;;;;;5062650;28;20032;-68
2021/05/18 10:57:08;;;;;;;6.30;5.22;;;;;;;;;;5064014;28;20068;-73
2021/05/18 10:59:34;;;;;;;5.45;4.50;;;;;;;;;;5061044;28;20037;-74
2021/05/18 11:02:02;;;;;;;6.20;4.10;;;;;;;;;;5062987;28;20553;-67
2021/05/18 11:04:28;;;;;;;8.13;6.97;;;;;;;;;;5065918;28;20021;-67
2021/05/18 11:06:55;;;;;;;5.35;4.20;;;;;;;;;;5057085;28;20032;-68
2021/05/18 11:09:21;;;;;;;8.27;5.30;;;;;;;;;;5063867;28;20028;-67
2021/05/18 11:11:48;;;;;;;9.40;6.13;;;;;;;;;;5073706;28;20050;-72
2021/05/18 11:14:17;;;;;;;5.80;4.25;;;;;;;;;;5063255;28;20115;-74
2021/05/18 11:16:43;;;;;;;6.97;4.68;;;;;;;;;;5059469;28;20066;-73
2021/05/18 11:19:13;;;;;;;6.15;4.32;;;;;;;;;;5069842;28;20089;-73
2021/05/18 11:21:43;;;;;;;7.75;5.25;;;;;;;;;;5075469;28;20043;-74
2021/05/18 11:24:10;;;;;;;5.57;3.50;;;;;;;;;;5078622;28;20454;-74
2021/05/18 11:26:46;;;;;;;9.02;5.00;;;;;;;;;;5068977;28;20689;-74
2021/05/18 11:29:12;;;;;;;8.02;4.07;;;;;;;;;;5067911;28;20016;-73
2021/05/18 11:31:38;;;;;;;5.20;4.47;;;;;;;;;;5068216;28;20459;-74
2021/05/18 11:34:04;;;;;;;5.85;4.25;;;;;;;;;;5069704;28;20108;-73
2021/05/18 11:36:48;;;;;;;4.45;3.42;;;;;;;;;;5067985;28;20066;-73
2021/05/18 11:39:16;;;;;;;5.93;4.07;;;;;;;;;;5063380;28;20059;-74
2021/05/18 11:41:42;;;;;;;5.50;3.75;;;;;;;;;;5071192;28;20038;-75
2021/05/18 11:44:09;;;;;;;32.72;16.83;;;;;;;;;;5064620;28;20039;-73
2021/05/18 11:46:36;;;;;;;11.63;6.80;;;;;;;;;;5052380;28;20032;-74
2021/05/18 11:49:02;;;;;;;19.75;10.50;;;;;;;;;;5064544;28;20096;-68
2021/05/18 11:51:32;;;;;;;5.90;4.57;;;;;;;;;;5062654;28;20103;-69
2021/05/18 11:54:03;;;;;;;6.60;4.40;;;;;;;;;;5067676;28;20016;-75
2021/05/18 11:56:29;;;;;;;6.20;5.40;;;;;;;;;;5068045;28;20095;-69
2021/05/18 11:58:59;;;;;;;6.45;4.82;;;;;;;;;;5062698;28;20033;-68
2021/05/18 12:01:25;;;;;;;7.60;4.05;;;;;;;;;;5064668;28;20036;-68
2021/05/18 12:04:08;;;;;;;8.13;5.60;;;;;;;;;;5067648;28;20036;-69
2021/05/18 12:06:35;;;;;;;9.82;4.25;;;;;;;;;;5053154;28;20157;-63
2021/05/18 12:09:01;;;;;;;6.60;4.35;;;;;;;;;;5057418;28;20021;-63
2021/05/18 12:11:27;;;;;;;11.32;4.13;;;;;;;;;;5073033;28;20029;-63
2021/05/18 12:13:54;;;;;;;3.67;3.15;;;;;;;;;;5065769;28;20078;-64
2021/05/18 12:16:21;;;;;;;3.30;3.00;;;;;;;;;;5059089;28;20029;-64
2021/05/18 12:18:57;;;;;;;4.20;3.40;;;;;;;;;;5067608;28;20086;-63
2021/05/18 12:21:29;;;;;;;5.88;4.20;;;;;;;;;;5061485;28;20048;-63
2021/05/18 12:24:04;;;;;;;4.63;3.30;;;;;;;;;;5065887;28;20025;-62
2021/05/18 12:26:30;;;;;;;4.20;3.03;;;;;;;;;;5069631;28;20060;-70
2021/05/18 12:28:58;;;;;;;6.22;3.92;;;;;;;;;;5062424;28;20080;-69
2021/05/18 12:31:27;;;;;;;17.83;9.10;;;;;;;;;;5078330;28;20027;-69
2021/05/18 12:33:53;;;;;;;5.30;3.50;;;;;;;;;;5070723;28;20063;-68
2021/05/18 12:36:19;;;;;;;6.53;3.30;;;;;;;;;;5071035;28;20020;-69
2021/05/18 12:39:04;;;;;;;4.63;3.75;;;;;;;;;;5067698;28;20029;-69
2021/05/18 12:41:31;;;;;;;6.03;3.90;;;;;;;;;;5068114;28;20043;-69
2021/05/18 12:44:05;;;;;;;7.22;4.43;;;;;;;;;;5064005;28;20052;-69
2021/05/18 12:46:31;;;;;;;12.30;6.80;;;;;;;;;;5084053;28;20038;-70
2021/05/18 12:48:57;;;;;;;10.15;5.82;;;;;;;;;;5068823;28;20048;-69
2021/05/18 12:51:25;;;;;;;5.57;4.45;;;;;;;;;;5076007;28;20028;-68
2021/05/18 12:54:01;;;;;;;43.58;39.40;;;;;;;;;;5053332;28;20427;-69
2021/05/18 12:56:28;;;;;;;14.07;8.73;;;;;;;;;;5068678;28;20028;-69
2021/05/18 12:59:02;;;;;;;7.72;6.30;;;;;;;;;;5072221;28;20031;-69
2021/05/18 13:01:28;;;;;;;6.32;4.05;;;;;;;;;;5055063;28;20045;-68
2021/05/18 13:04:07;;;;;;;3.75;2.90;;;;;;;;;;5075453;28;20107;-68
2021/05/18 13:06:35;;;;;;;51.00;33.97;;;;;;;;;;5072928;28;20044;-69
2021/05/18 13:09:01;;;;;;;22.73;12.65;;;;;;;;;;5072689;28;20537;-69
2021/05/18 13:13:59;;;;;;;19.50;12.85;;;;;;;;;;5069296;28;20060;-69
2021/05/18 13:16:26;;;;;;;7.10;4.57;;;;;;;;;;5059011;28;20028;-69
2021/05/18 13:18:54;;;;;;;8.75;6.35;;;;;;;;;;5064228;28;20037;-69
2021/05/18 13:21:28;;;;;;;17.98;10.77;;;;;;;;;;5060403;28;20032;-69
2021/05/18 13:26:27;;;;;;;8.57;4.40;;;;;;;;;;5065564;28;20397;-70
2021/05/18 13:28:57;;;;;;;14.30;7.60;;;;;;;;;;5069174;28;20080;-70
2021/05/18 13:31:23;;;;;;;12.65;6.43;;;;;;;;;;5064848;28;20059;-69
2021/05/18 13:33:49;;;;;;;11.23;5.75;;;;;;;;;;5067855;28;20028;-70
2021/05/18 13:36:15;;;;;;;6.55;3.75;;;;;;;;;;5062076;28;20059;-70
2021/05/18 13:38:41;;;;;;;6.05;4.13;;;;;;;;;;5068190;28;20116;-70
2021/05/18 13:41:07;;;;;;;15.25;7.72;;;;;;;;;;5058782;28;20417;-69
2021/05/18 13:43:33;;;;;;;16.42;7.53;;;;;;;;;;5063280;28;20070;-70
2021/05/18 13:45:59;;;;;;;14.23;6.72;;;;;;;;;;5057781;28;20517;-70
2021/05/18 13:48:25;;;;;;;13.05;7.57;;;;;;;;;;5069595;28;20024;-70
2021/05/18 13:50:51;;;;;;;7.72;4.18;;;;;;;;;;5068982;28;20025;-70
2021/05/18 13:53:18;;;;;;;11.38;4.90;;;;;;;;;;5068056;28;20123;-70
2021/05/18 13:55:44;;;;;;;14.70;6.78;;;;;;;;;;5073105;28;20139;-70
2021/05/18 13:58:11;;;;;;;7.22;4.70;;;;;;;;;;5068387;28;20091;-70
2021/05/18 14:00:37;;;;;;;8.43;4.63;;;;;;;;;;5069709;28;20028;-70
2021/05/18 14:03:03;;;;;;;11.77;6.45;;;;;;;;;;5063948;28;20048;-70
2021/05/18 14:05:29;;;;;;;9.48;3.70;;;;;;;;;;5066807;28;20086;-70
2021/05/18 14:10:22;;;;;;;3.15;2.50;;;;;;;;;;5067024;28;20072;-70
2021/05/18 14:12:48;;;;;;;3.70;3.17;;;;;;;;;;5068318;28;20025;-70
2021/05/18 14:15:14;;;;;;;5.80;3.60;;;;;;;;;;5067933;28;20098;-69
2021/05/18 14:17:40;;;;;;;5.75;3.10;;;;;;;;;;5069985;28;20058;-70
2021/05/18 14:20:06;;;;;;;4.50;3.95;;;;;;;;;;5070102;28;20035;-70
2021/05/18 14:22:32;;;;;;;4.10;3.70;;;;;;;;;;5072094;28;20029;-71
2021/05/18 14:25:05;;;;;;;4.90;3.30;;;;;;;;;;5072674;28;20103;-71
2021/05/18 14:27:32;;;;;;;26.17;15.00;;;;;;;;;;5066600;28;20021;-71
2021/05/18 14:29:58;;;;;;;27.20;14.88;;;;;;;;;;5068971;28;20110;-71
2021/05/18 14:32:24;;;;;;;13.38;6.13;;;;;;;;;;5069217;28;20107;-71
2021/05/18 14:34:52;;;;;;;27.38;15.82;;;;;;;;;;5070150;28;20100;-71
2021/05/18 14:37:18;;;;;;;24.05;12.90;;;;;;;;;;5069378;28;20044;-71
2021/05/18 14:39:55;;;;;;;23.52;13.52;;;;;;;;;;5070203;28;20048;-71
2021/05/18 14:45:06;;;;;;;4.07;3.03;;;;;;;;;;5068451;28;20048;-71
2021/05/18 14:47:45;;;;;;;5.93;3.72;;;;;;;;;;5068288;28;20032;-71
2021/05/18 14:55:41;;;;;;;6.20;4.25;;;;;;;;;;5067491;28;20039;-71
2021/05/18 14:58:07;;;;;;;8.02;4.82;;;;;;;;;;5069756;28;20833;-71
2021/05/18 15:00:35;;;;;;;8.05;4.30;;;;;;;;;;5070404;28;20025;-71
2021/05/18 15:03:02;;;;;;;5.93;3.63;;;;;;;;;;5069624;28;20044;-71
2021/05/18 15:05:28;;;;;;;8.55;4.75;;;;;;;;;;5070639;28;20845;-71
2021/05/18 15:07:54;;;;;;;7.97;4.53;;;;;;;;;;5069649;28;20528;-71
2021/05/18 15:10:20;;;;;;;5.70;4.15;;;;;;;;;;5069666;28;20409;-71
2021/05/18 15:12:46;;;;;;;6.15;3.75;;;;;;;;;;5057220;28;20411;-71
2021/05/18 15:15:12;;;;;;;5.63;2.58;;;;;;;;;;5070114;28;20025;-71
2021/05/18 15:17:38;;;;;;;6.50;2.55;;;;;;;;;;5069826;28;20033;-71
2021/05/18 15:20:05;;;;;;;4.13;3.25;;;;;;;;;;5070693;28;20150;-71
2021/05/18 15:22:31;;;;;;;6.85;4.25;;;;;;;;;;5072651;28;20028;-71
2021/05/18 15:24:58;;;;;;;9.98;4.75;;;;;;;;;;5090710;28;20016;-71
2021/05/18 15:27:26;;;;;;;11.70;7.72;;;;;;;;;;5070287;28;20034;-71
2021/05/18 15:29:52;;;;;;;9.82;6.20;;;;;;;;;;5049209;28;20048;-71
2021/05/18 15:32:18;;;;;;;4.57;3.42;;;;;;;;;;5050411;28;20032;-71
2021/05/18 15:34:44;;;;;;;10.45;3.67;;;;;;;;;;5064300;28;20739;-69
2021/05/18 15:37:10;;;;;;;6.80;3.50;;;;;;;;;;5048745;28;20378;-70
2021/05/18 15:39:36;;;;;;;7.00;2.58;;;;;;;;;;5063897;28;20390;-70
2021/05/18 15:42:03;;;;;;;7.10;3.15;;;;;;;;;;5070383;28;20036;-70
2021/05/18 15:44:29;;;;;;;5.13;3.28;;;;;;;;;;5068081;28;20020;-70
2021/05/18 15:46:55;;;;;;;4.85;2.63;;;;;;;;;;5070598;28;20389;-70
2021/05/18 15:49:24;;;;;;;3.20;2.40;;;;;;;;;;5070395;28;20023;-70
2021/05/18 15:51:50;;;;;;;;;;;;;;;;;;5058538;28;20055;-69
2021/05/18 15:54:16;;;;;;;2.00;1.90;;;;;;;;;;5049515;28;19932;-69
2021/05/18 15:56:42;;;;;;;2.25;1.98;;;;;;;;;;5049397;28;20029;-69
2021/05/18 15:59:08;;;;;;;3.15;2.00;;;;;;;;;;5064590;28;20134;-68
2021/05/18 16:01:34;;;;;;;2.50;2.20;;;;;;;;;;5057352;28;20194;-69
2021/05/18 16:04:00;;;;;;;6.30;3.20;;;;;;;;;;5071951;28;20017;-69
2021/05/18 16:06:29;;;;;;;14.75;3.65;;;;;;;;;;5073051;28;20033;-68
2021/05/18 16:11:21;;;;;;;3.83;2.53;;;;;;;;;;5073801;28;20110;-69
2021/05/18 16:13:47;;;;;;;2.92;2.40;;;;;;;;;;5073348;28;20028;-69
2021/05/18 16:16:15;;;;;;;6.18;2.60;;;;;;;;;;5073682;28;20043;-69
2021/05/18 16:18:41;;;;;;;2.55;2.17;;;;;;;;;;5072586;28;20027;-69
2021/05/18 16:21:11;;;;;;;7.00;4.00;;;;;;;;;;5072894;28;20036;-68
2021/05/18 16:23:38;;;;;;;6.32;2.95;;;;;;;;;;5085652;28;20028;-68
2021/05/18 16:26:04;;;;;;;3.55;2.90;;;;;;;;;;5093682;28;20028;-68
2021/05/18 16:28:31;;;;;;;9.70;3.40;;;;;;;;;;5093101;28;20085;-69
2021/05/18 16:30:58;;;;;;;8.32;3.33;;;;;;;;;;5093746;28;20047;-68
2021/05/18 16:33:24;;;;;;;5.75;3.00;;;;;;;;;;5093300;28;20095;-69
2021/05/18 16:35:50;;;;;;;8.30;3.10;;;;;;;;;;5092039;28;20038;-69
2021/05/18 16:38:16;;;;;;;5.53;2.80;;;;;;;;;;5093231;28;20028;-69
2021/05/18 16:40:42;;;;;;;4.00;2.22;;;;;;;;;;5093240;28;20452;-69
2021/05/18 16:43:08;;;;;;;4.97;3.35;;;;;;;;;;5093138;28;20016;-69
2021/05/18 16:45:35;;;;;;;11.10;5.22;;;;;;;;;;5073406;28;20930;-69
2021/05/18 16:48:01;;;;;;;73.60;8.63;;;;;;;;;;5072896;28;20099;-68
2021/05/18 16:50:27;;;;;;;4.40;3.08;;;;;;;;;;5070770;28;20024;-69
2021/05/18 16:52:54;;;;;;;5.55;3.00;;;;;;;;;;5073235;28;20028;-69
2021/05/18 16:55:20;;;;;;;10.15;4.50;;;;;;;;;;5072716;28;20016;-69
2021/05/18 16:57:46;;;;;;;5.50;3.90;;;;;;;;;;5072697;28;20047;-69
2021/05/18 17:00:12;;;;;;;12.50;6.53;;;;;;;;;;5072532;28;20024;-68
2021/05/18 17:02:38;;;;;;;12.68;5.30;;;;;;;;;;5071539;28;20043;-69
2021/05/18 17:05:06;;;;;;;11.27;5.20;;;;;;;;;;5072772;28;20036;-69
2021/05/18 17:07:32;;;;;;;10.07;4.97;;;;;;;;;;5071066;28;20059;-69
2021/05/18 17:09:58;;;;;;;6.72;3.95;;;;;;;;;;5072222;28;20028;-69
2021/05/18 17:12:24;;;;;;;13.98;7.97;;;;;;;;;;5072828;28;20451;-68
2021/05/18 17:14:50;;;;;;;9.43;4.95;;;;;;;;;;5071053;28;20104;-69
2021/05/18 17:17:16;;;;;;;8.02;4.80;;;;;;;;;;5072367;28;20466;-68
2021/05/18 17:19:44;;;;;;;15.88;8.00;;;;;;;;;;5071345;28;20051;-69
2021/05/18 17:22:11;;;;;;;3.88;3.00;;;;;;;;;;5071975;28;20035;-69
2021/05/18 17:24:37;;;;;;;5.03;3.67;;;;;;;;;;5082441;28;20051;-69
2021/05/18 17:27:03;;;;;;;12.05;6.38;;;;;;;;;;5070971;28;20024;-69
2021/05/18 17:29:31;;;;;;;8.75;4.75;;;;;;;;;;5071821;28;20032;-68
2021/05/18 17:31:57;;;;;;;12.90;6.60;;;;;;;;;;5072409;28;20119;-69
2021/05/18 17:34:23;;;;;;;7.78;3.63;;;;;;;;;;5072310;28;20067;-69
2021/05/18 17:36:50;;;;;;;7.50;4.25;;;;;;;;;;5071665;28;20020;-69
2021/05/18 17:39:16;;;;;;;6.70;3.30;;;;;;;;;;5072490;28;20040;-69
2021/05/18 17:41:42;;;;;;;6.78;3.90;;;;;;;;;;5072084;28;20463;-69
2021/05/18 17:44:08;;;;;;;5.63;3.40;;;;;;;;;;5063322;28;20123;-69
2021/05/18 17:46:36;;;;;;;6.72;4.32;;;;;;;;;;5051156;28;20075;-69
2021/05/18 17:49:02;;;;;;;6.68;4.25;;;;;;;;;;5051823;28;20017;-69
2021/05/18 17:51:28;;;;;;;7.55;4.28;;;;;;;;;;5061847;28;20469;-68
2021/05/18 17:53:54;;;;;;;9.77;3.97;;;;;;;;;;5071398;28;20083;-69
2021/05/18 17:56:20;;;;;;;8.32;3.97;;;;;;;;;;5069749;28;20032;-69
2021/05/18 17:58:47;;;;;;;9.68;3.70;;;;;;;;;;5069395;28;20092;-69
2021/05/18 18:01:13;;;;;;;15.45;7.57;;;;;;;;;;5060208;28;20024;-69
2021/05/18 18:03:39;;;;;;;55.15;33.70;;;;;;;;;;5067962;28;20044;-69
2021/05/18 18:06:05;;;;;;;21.25;11.48;;;;;;;;;;5052809;28;20109;-69
2021/05/18 18:08:33;;;;;;;12.60;6.57;;;;;;;;;;5062975;28;20087;-69
2021/05/18 18:10:59;;;;;;;9.57;4.90;;;;;;;;;;5070198;28;20031;-69
2021/05/18 18:13:25;;;;;;;13.95;7.13;;;;;;;;;;5070252;28;20028;-69
2021/05/18 18:15:51;;;;;;;12.93;7.35;;;;;;;;;;5070475;28;20047;-69
2021/05/18 18:18:17;;;;;;;15.80;7.03;;;;;;;;;;5071414;28;20462;-69
2021/05/18 18:20:43;;;;;;;31.75;15.82;;;;;;;;;;5070769;28;20470;-69
2021/05/18 18:23:09;;;;;;;16.35;8.57;;;;;;;;;;5080160;28;20148;-69
2021/05/18 18:25:35;;;;;;;23.60;12.90;;;;;;;;;;5091025;28;20028;-69
2021/05/18 18:28:02;;;;;;;20.48;11.15;;;;;;;;;;5090906;28;20020;-69
2021/05/18 18:30:28;;;;;;;31.45;17.23;;;;;;;;;;5091604;28;20142;-69
2021/05/18 18:32:54;;;;;;;53.78;42.15;;;;;;;;;;5090384;28;20032;-69
2021/05/18 18:35:20;;;;;;;23.52;15.45;;;;;;;;;;5090778;28;20374;-69
2021/05/18 18:37:46;;;;;;;10.27;6.47;;;;;;;;;;5069862;28;20047;-69
2021/05/18 18:40:12;;;;;;;9.38;4.60;;;;;;;;;;5064306;28;20077;-69
2021/05/18 18:42:39;;;;;;;28.10;17.40;;;;;;;;;;5068830;28;20051;-69
2021/05/18 18:45:05;;;;;;;33.00;18.73;;;;;;;;;;5069326;28;20081;-69
2021/05/18 18:47:32;;;;;;;20.95;9.93;;;;;;;;;;5052064;28;20029;-69
2021/05/18 18:50:00;;;;;;;21.42;12.18;;;;;;;;;;5050051;28;20017;-69
2021/05/18 18:55:11;;;;;;;16.92;8.57;;;;;;;;;;5065729;28;20037;-69
2021/05/18 18:57:37;;;;;;;5.20;3.20;;;;;;;;;;5070038;28;20032;-69
2021/05/18 19:00:04;;;;;;;6.03;3.40;;;;;;;;;;5071232;28;20055;-69
2021/05/18 19:02:40;;;;;;;6.93;5.35;;;;;;;;;;5070451;28;20402;-69
2021/05/18 19:05:25;;;;;;;19.88;9.20;;;;;;;;;;5070228;28;20021;-69
2021/05/18 19:13:25;;;;;;;14.65;6.43;;;;;;;;;;5069597;28;20112;-69
2021/05/18 19:15:51;;;;;;;6.22;3.90;;;;;;;;;;5071246;28;20032;-69
2021/05/18 19:18:17;;;;;;;6.05;4.07;;;;;;;;;;5070478;28;20844;-69
2021/05/18 19:20:43;;;;;;;6.85;4.45;;;;;;;;;;5070567;28;20024;-69
2021/05/18 19:23:11;;;;;;;16.75;8.00;;;;;;;;;;5079594;28;20028;-69
2021/05/18 19:25:38;;;;;;;17.80;8.32;;;;;;;;;;5091121;28;20139;-69
2021/05/18 19:28:09;;;;;;;21.85;9.55;;;;;;;;;;5090289;28;20024;-69
2021/05/18 19:30:35;;;;;;;21.20;9.85;;;;;;;;;;5089637;28;20103;-69
2021/05/18 19:33:01;;;;;;;19.55;8.82;;;;;;;;;;5084343;28;20021;-69
2021/05/18 19:48:44;;;;;;;8.90;5.03;;;;;;;;;;5073909;28;20040;-69
2021/05/18 19:51:10;;;;;;;6.80;4.57;;;;;;;;;;5073349;28;20013;-69
2021/05/18 19:53:38;;;;;;;14.20;7.00;;;;;;;;;;5073938;28;20021;-69
2021/05/18 19:56:27;;;;;;;8.82;5.28;;;;;;;;;;5073803;28;20032;-69
2021/05/18 20:19:56;;;;;;;2.97;2.60;;;;;;;;;;5053332;28;19944;-69